Time;durP1;ratioP1;P1;durP2;ratioP2;P2;SDS_P1;SDS_P2;PMS_P1;PMS_P2;Temp;Humidity;BMP_temperature;BMP_pressure;BME280_temperature;BME280_humidity;BME280_pressure;Samples;Min_cycle;Max_cycle;Signal;HPM_P1;HPM_P2
2022/08/25 00:02:15;;;;;;;26.42;23.67;;;;;;;;;;5079608;28;20041;-68
2022/08/25 00:04:42;;;;;;;25.08;22.33;;;;;;;;;;5083193;28;20040;-68
2022/08/25 00:07:08;;;;;;;23.95;21.45;;;;;;;;;;5072992;28;20051;-68
2022/08/25 00:09:34;;;;;;;27.23;21.83;;;;;;;;;;5078274;28;20717;-68
2022/08/25 00:12:01;;;;;;;23.25;20.83;;;;;;;;;;5074973;28;20051;-67
2022/08/25 00:14:30;;;;;;;22.83;20.42;;;;;;;;;;5073939;28;20075;-67
2022/08/25 00:16:56;;;;;;;23.67;19.63;;;;;;;;;;5077984;28;20048;-68
2022/08/25 00:19:26;;;;;;;24.85;21.40;;;;;;;;;;5084036;28;20052;-67
2022/08/25 00:21:52;;;;;;;21.23;19.05;;;;;;;;;;5083399;28;20036;-68
2022/08/25 00:24:19;;;;;;;24.38;21.83;;;;;;;;;;5070819;28;20051;-68
2022/08/25 00:26:47;;;;;;;23.67;21.38;;;;;;;;;;5079651;28;20510;-67
2022/08/25 00:29:13;;;;;;;22.38;19.05;;;;;;;;;;5082773;28;20063;-67
2022/08/25 00:31:40;;;;;;;25.48;18.63;;;;;;;;;;5080818;28;20442;-68
2022/08/25 00:34:09;;;;;;;24.92;21.17;;;;;;;;;;5081431;28;20067;-68
2022/08/25 00:36:36;;;;;;;20.52;17.90;;;;;;;;;;5081419;28;20131;-67
2022/08/25 00:39:02;;;;;;;21.33;18.67;;;;;;;;;;5083220;28;20096;-67
2022/08/25 00:41:28;;;;;;;22.63;17.73;;;;;;;;;;5082419;28;20040;-67
2022/08/25 00:43:56;;;;;;;21.23;17.63;;;;;;;;;;5074790;28;20044;-68
2022/08/25 00:46:24;;;;;;;19.98;17.92;;;;;;;;;;5083392;28;20108;-67
2022/08/25 00:48:53;;;;;;;19.83;16.15;;;;;;;;;;5080244;28;20044;-68
2022/08/25 00:51:29;;;;;;;22.40;17.42;;;;;;;;;;5081434;28;20053;-67
2022/08/25 00:53:56;;;;;;;19.05;15.93;;;;;;;;;;5087815;28;20325;-68
2022/08/25 00:56:22;;;;;;;17.02;15.07;;;;;;;;;;5083948;28;20543;-68
2022/08/25 00:58:48;;;;;;;18.00;16.15;;;;;;;;;;5075280;28;20125;-67
2022/08/25 01:01:15;;;;;;;17.42;15.15;;;;;;;;;;5076595;28;20116;-67
2022/08/25 01:03:41;;;;;;;19.33;16.00;;;;;;;;;;5073914;28;20094;-67
2022/08/25 01:06:09;;;;;;;16.90;14.57;;;;;;;;;;5076998;28;20044;-67
2022/08/25 01:08:35;;;;;;;18.17;15.07;;;;;;;;;;5084244;28;20051;-67
2022/08/25 01:11:03;;;;;;;17.70;14.95;;;;;;;;;;5084078;27;20394;-68
2022/08/25 01:13:33;;;;;;;16.35;14.48;;;;;;;;;;5071190;28;20071;-67
2022/08/25 01:15:59;;;;;;;17.65;14.23;;;;;;;;;;5077353;28;20062;-67
2022/08/25 01:18:26;;;;;;;15.93;12.90;;;;;;;;;;5078060;28;20116;-67
2022/08/25 01:20:53;;;;;;;19.17;12.73;;;;;;;;;;5094027;27;20117;-67
2022/08/25 01:23:19;;;;;;;15.35;11.63;;;;;;;;;;5078009;28;20129;-67
2022/08/25 01:26:00;;;;;;;14.10;11.45;;;;;;;;;;5066934;28;20041;-68
2022/08/25 01:28:27;;;;;;;16.63;11.32;;;;;;;;;;5081667;28;20040;-67
2022/08/25 01:30:53;;;;;;;17.85;11.35;;;;;;;;;;5078427;28;20347;-68
2022/08/25 01:33:19;;;;;;;16.30;10.57;;;;;;;;;;5082052;28;20078;-67
2022/08/25 01:35:45;;;;;;;15.38;12.20;;;;;;;;;;5079751;28;20036;-68
2022/08/25 01:38:12;;;;;;;14.65;10.43;;;;;;;;;;5076300;28;20048;-67
2022/08/25 01:40:38;;;;;;;21.05;11.82;;;;;;;;;;5073450;28;21755;-68
2022/08/25 01:43:06;;;;;;;17.52;11.90;;;;;;;;;;5082300;28;20035;-68
2022/08/25 01:45:33;;;;;;;15.02;10.75;;;;;;;;;;5089513;27;20052;-67
2022/08/25 01:47:59;;;;;;;13.68;10.63;;;;;;;;;;5085789;28;20044;-67
2022/08/25 01:50:26;;;;;;;14.50;10.40;;;;;;;;;;5084175;28;20078;-67
2022/08/25 01:52:55;;;;;;;16.05;11.07;;;;;;;;;;5075297;28;20089;-67
2022/08/25 01:55:21;;;;;;;15.38;11.07;;;;;;;;;;5081675;28;20094;-67
2022/08/25 01:57:47;;;;;;;11.98;9.95;;;;;;;;;;5083040;28;20040;-67
2022/08/25 02:00:14;;;;;;;13.43;11.45;;;;;;;;;;5078058;28;20052;-67
2022/08/25 02:02:41;;;;;;;14.43;10.43;;;;;;;;;;5080464;28;20139;-67
2022/08/25 02:05:08;;;;;;;15.73;11.00;;;;;;;;;;5081346;28;20044;-67
2022/08/25 02:07:35;;;;;;;14.10;10.25;;;;;;;;;;5080740;28;20054;-67
2022/08/25 02:10:03;;;;;;;13.13;10.10;;;;;;;;;;5074418;28;20052;-68
2022/08/25 02:12:30;;;;;;;15.38;9.35;;;;;;;;;;5079867;28;20059;-67
2022/08/25 02:14:57;;;;;;;14.88;10.20;;;;;;;;;;5078079;28;20215;-67
2022/08/25 02:17:24;;;;;;;13.20;10.07;;;;;;;;;;5077643;28;20551;-67
2022/08/25 02:19:50;;;;;;;13.00;9.68;;;;;;;;;;5082025;28;20058;-67
2022/08/25 02:22:17;;;;;;;11.45;9.23;;;;;;;;;;5095692;27;20480;-67
2022/08/25 02:24:43;;;;;;;15.85;9.80;;;;;;;;;;5081868;28;20067;-67
2022/08/25 02:27:10;;;;;;;11.50;9.02;;;;;;;;;;5077885;28;20062;-68
2022/08/25 02:29:37;;;;;;;13.13;9.10;;;;;;;;;;5082960;28;20047;-67
2022/08/25 02:32:04;;;;;;;14.73;8.38;;;;;;;;;;5085326;28;20365;-67
2022/08/25 02:34:30;;;;;;;16.35;8.77;;;;;;;;;;5069736;28;20044;-68
2022/08/25 02:36:56;;;;;;;12.40;8.57;;;;;;;;;;5068716;28;20071;-67
2022/08/25 02:39:22;;;;;;;14.77;9.13;;;;;;;;;;5066347;28;20074;-67
2022/08/25 02:41:49;;;;;;;15.20;7.88;;;;;;;;;;5075643;28;20956;-67
2022/08/25 02:44:15;;;;;;;11.30;7.50;;;;;;;;;;5045633;28;20495;-67
2022/08/25 02:46:41;;;;;;;14.13;8.05;;;;;;;;;;5084631;28;20136;-67
2022/08/25 02:49:07;;;;;;;10.73;7.60;;;;;;;;;;5070105;28;20056;-67
2022/08/25 02:51:34;;;;;;;12.68;7.03;;;;;;;;;;5075507;28;20135;-68
2022/08/25 02:54:01;;;;;;;12.05;7.00;;;;;;;;;;5094893;27;20502;-68
2022/08/25 02:56:28;;;;;;;10.57;6.88;;;;;;;;;;5073376;28;20071;-67
2022/08/25 02:58:55;;;;;;;12.38;7.03;;;;;;;;;;5075541;28;20044;-67
2022/08/25 03:01:21;;;;;;;13.27;7.50;;;;;;;;;;5080135;28;20086;-67
2022/08/25 03:03:48;;;;;;;12.60;7.38;;;;;;;;;;5077460;28;20044;-67
2022/08/25 03:06:15;;;;;;;11.63;8.05;;;;;;;;;;5076886;28;20070;-67
2022/08/25 03:08:42;;;;;;;12.65;7.47;;;;;;;;;;5081652;28;20093;-67
2022/08/25 03:11:08;;;;;;;12.05;7.80;;;;;;;;;;5076460;28;20086;-67
2022/08/25 03:13:35;;;;;;;9.40;5.95;;;;;;;;;;5081087;28;20038;-67
2022/08/25 03:16:02;;;;;;;8.88;6.05;;;;;;;;;;5077319;28;20047;-67
2022/08/25 03:18:29;;;;;;;8.88;5.55;;;;;;;;;;5088078;28;20071;-67
2022/08/25 03:20:55;;;;;;;10.20;5.63;;;;;;;;;;5080481;28;20043;-67
2022/08/25 03:23:21;;;;;;;10.35;5.28;;;;;;;;;;5077864;28;20521;-67
2022/08/25 03:28:32;;;;;;;13.10;5.43;;;;;;;;;;5074298;28;20040;-68
2022/08/25 03:30:59;;;;;;;8.98;4.90;;;;;;;;;;5077199;28;20163;-67
2022/08/25 03:33:27;;;;;;;10.35;5.10;;;;;;;;;;5066108;28;20471;-67
2022/08/25 03:35:54;;;;;;;13.57;5.30;;;;;;;;;;5076530;28;20054;-67
2022/08/25 03:38:20;;;;;;;9.77;5.13;;;;;;;;;;5087976;28;20044;-67
2022/08/25 03:40:46;;;;;;;11.02;4.68;;;;;;;;;;5076847;28;20045;-67
2022/08/25 03:43:13;;;;;;;10.00;4.82;;;;;;;;;;5073176;28;20048;-67
2022/08/25 03:45:39;;;;;;;9.90;4.95;;;;;;;;;;5067410;28;20040;-67
2022/08/25 03:48:06;;;;;;;10.07;5.22;;;;;;;;;;5074962;28;20078;-67
2022/08/25 03:50:32;;;;;;;12.15;4.78;;;;;;;;;;5081785;28;20072;-67
2022/08/25 03:52:58;;;;;;;8.00;4.50;;;;;;;;;;5080432;28;20051;-67
2022/08/25 03:55:25;;;;;;;11.77;4.90;;;;;;;;;;5070644;28;20036;-67
2022/08/25 03:57:51;;;;;;;7.50;4.35;;;;;;;;;;5074724;28;20048;-67
2022/08/25 04:00:18;;;;;;;9.10;4.28;;;;;;;;;;5066642;28;20071;-67
2022/08/25 04:02:44;;;;;;;11.55;4.40;;;;;;;;;;5077160;28;20085;-67
2022/08/25 04:05:11;;;;;;;8.82;4.68;;;;;;;;;;5081540;28;20058;-67
2022/08/25 04:07:37;;;;;;;7.60;4.20;;;;;;;;;;5087386;28;20096;-67
2022/08/25 04:10:05;;;;;;;7.25;4.05;;;;;;;;;;5080270;28;20467;-67
2022/08/25 04:12:31;;;;;;;9.27;3.92;;;;;;;;;;5079761;28;20047;-67
2022/08/25 04:14:57;;;;;;;9.13;3.83;;;;;;;;;;5073355;28;20056;-67
2022/08/25 04:17:24;;;;;;;9.52;4.28;;;;;;;;;;5071527;28;20055;-68
2022/08/25 04:19:50;;;;;;;6.75;4.03;;;;;;;;;;5068367;28;20127;-67
2022/08/25 04:22:17;;;;;;;7.13;4.38;;;;;;;;;;5078518;28;20500;-67
2022/08/25 04:24:43;;;;;;;11.98;4.07;;;;;;;;;;5077271;28;20173;-67
2022/08/25 04:27:09;;;;;;;7.35;4.28;;;;;;;;;;5074015;28;20955;-67
2022/08/25 04:29:35;;;;;;;11.27;4.75;;;;;;;;;;5074255;28;20127;-67
2022/08/25 04:32:02;;;;;;;10.18;4.25;;;;;;;;;;5076755;28;20044;-68
2022/08/25 04:34:28;;;;;;;10.50;4.03;;;;;;;;;;5095764;28;20176;-68
2022/08/25 04:36:54;;;;;;;11.40;4.28;;;;;;;;;;5087335;28;20102;-67
2022/08/25 04:39:21;;;;;;;7.88;4.47;;;;;;;;;;5081426;28;20048;-67
2022/08/25 04:41:47;;;;;;;10.25;3.80;;;;;;;;;;5081545;28;20043;-68
2022/08/25 04:44:14;;;;;;;9.48;3.97;;;;;;;;;;5097375;27;21061;-67
2022/08/25 04:46:40;;;;;;;6.50;4.13;;;;;;;;;;5084532;28;20077;-67
2022/08/25 04:49:08;;;;;;;7.90;3.88;;;;;;;;;;5090678;28;20040;-67
2022/08/25 04:51:38;;;;;;;9.30;4.03;;;;;;;;;;5087430;28;20032;-67
2022/08/25 04:54:06;;;;;;;6.55;3.63;;;;;;;;;;5089225;28;20073;-67
2022/08/25 04:56:33;;;;;;;9.35;4.22;;;;;;;;;;5090724;28;20044;-67
2022/08/25 04:59:02;;;;;;;10.02;4.57;;;;;;;;;;5090754;28;20087;-67
2022/08/25 05:01:29;;;;;;;12.82;4.15;;;;;;;;;;5089294;28;20036;-67
2022/08/25 05:03:58;;;;;;;8.95;4.28;;;;;;;;;;5088487;28;20151;-67
2022/08/25 05:06:24;;;;;;;10.90;4.50;;;;;;;;;;5090559;28;20211;-67
2022/08/25 05:08:50;;;;;;;9.23;3.70;;;;;;;;;;5080628;28;20067;-67
2022/08/25 05:11:17;;;;;;;7.13;3.70;;;;;;;;;;5079485;28;20478;-66
2022/08/25 05:13:45;;;;;;;9.02;3.28;;;;;;;;;;5078869;27;20055;-67
2022/08/25 05:16:11;;;;;;;8.77;3.97;;;;;;;;;;5082607;28;20075;-67
2022/08/25 05:18:37;;;;;;;7.10;3.95;;;;;;;;;;5086602;28;20128;-67
2022/08/25 05:21:05;;;;;;;14.93;3.70;;;;;;;;;;5081394;28;20052;-66
2022/08/25 05:23:31;;;;;;;8.45;3.67;;;;;;;;;;5085588;28;20074;-67
2022/08/25 05:26:01;;;;;;;7.53;3.92;;;;;;;;;;5080553;28;20090;-67
2022/08/25 05:28:27;;;;;;;7.53;3.75;;;;;;;;;;5084663;28;20044;-66
2022/08/25 05:30:57;;;;;;;8.50;4.22;;;;;;;;;;5091783;28;20432;-67
2022/08/25 05:33:23;;;;;;;13.88;3.90;;;;;;;;;;5096992;27;20075;-65
2022/08/25 05:35:49;;;;;;;11.07;3.97;;;;;;;;;;5080233;28;21927;-67
2022/08/25 05:38:15;;;;;;;7.05;4.07;;;;;;;;;;5063069;28;20089;-67
2022/08/25 05:40:42;;;;;;;13.65;4.35;;;;;;;;;;5080649;28;20036;-67
2022/08/25 05:43:08;;;;;;;12.25;4.00;;;;;;;;;;5077662;28;20052;-68
2022/08/25 05:45:34;;;;;;;7.13;3.65;;;;;;;;;;5070182;28;20132;-67
2022/08/25 05:48:01;;;;;;;9.52;4.15;;;;;;;;;;5088795;28;20348;-67
2022/08/25 05:50:27;;;;;;;15.77;4.75;;;;;;;;;;5091827;28;20442;-67
2022/08/25 05:52:53;;;;;;;6.80;3.75;;;;;;;;;;5080152;28;20382;-67
2022/08/25 05:55:19;;;;;;;11.43;4.13;;;;;;;;;;5087482;28;20054;-67
2022/08/25 05:57:46;;;;;;;12.05;4.10;;;;;;;;;;5091571;28;20063;-67
2022/08/25 06:00:13;;;;;;;7.10;3.92;;;;;;;;;;5087813;28;20937;-67
2022/08/25 06:02:40;;;;;;;13.85;3.67;;;;;;;;;;5091531;28;20565;-67
2022/08/25 06:05:07;;;;;;;12.55;4.35;;;;;;;;;;5087589;28;20123;-68
2022/08/25 06:07:35;;;;;;;9.70;3.95;;;;;;;;;;5091996;28;20038;-68
2022/08/25 06:10:02;;;;;;;7.38;3.95;;;;;;;;;;5094388;28;20050;-68
2022/08/25 06:12:29;;;;;;;7.40;4.03;;;;;;;;;;5088101;28;20035;-68
2022/08/25 06:14:55;;;;;;;9.85;3.83;;;;;;;;;;5088821;28;20089;-68
2022/08/25 06:17:22;;;;;;;15.38;4.53;;;;;;;;;;5086380;28;20139;-66
2022/08/25 06:19:48;;;;;;;9.65;4.00;;;;;;;;;;5090294;28;22059;-67
2022/08/25 06:22:14;;;;;;;11.32;3.78;;;;;;;;;;5082182;28;20071;-67
2022/08/25 06:24:40;;;;;;;17.38;4.65;;;;;;;;;;5095191;28;20052;-67
2022/08/25 06:27:06;;;;;;;10.25;4.50;;;;;;;;;;5092657;28;20055;-67
2022/08/25 06:29:33;;;;;;;7.57;3.70;;;;;;;;;;5093466;28;20043;-67
2022/08/25 06:31:59;;;;;;;7.88;3.78;;;;;;;;;;5097080;28;20410;-68
2022/08/25 06:34:25;;;;;;;9.77;3.95;;;;;;;;;;5095286;28;20122;-68
2022/08/25 06:36:51;;;;;;;10.13;4.25;;;;;;;;;;5100409;28;20044;-68
2022/08/25 06:39:17;;;;;;;10.75;4.40;;;;;;;;;;5106135;28;20130;-68
2022/08/25 06:41:44;;;;;;;8.90;4.20;;;;;;;;;;5102644;28;20562;-68
2022/08/25 06:44:11;;;;;;;7.80;3.40;;;;;;;;;;5104194;28;20040;-68
2022/08/25 06:46:37;;;;;;;18.35;5.22;;;;;;;;;;5107352;28;20339;-68
2022/08/25 06:49:05;;;;;;;8.00;3.85;;;;;;;;;;5103027;28;20092;-68
2022/08/25 06:51:31;;;;;;;16.80;4.15;;;;;;;;;;5106495;28;20035;-68
2022/08/25 06:53:57;;;;;;;8.48;4.18;;;;;;;;;;5096934;28;20040;-68
2022/08/25 06:56:23;;;;;;;6.68;3.60;;;;;;;;;;5101505;28;20176;-68
2022/08/25 06:58:50;;;;;;;7.82;4.07;;;;;;;;;;5101760;28;20486;-68
2022/08/25 07:01:19;;;;;;;11.38;3.97;;;;;;;;;;5104185;28;20062;-68
2022/08/25 07:03:45;;;;;;;10.75;4.28;;;;;;;;;;5104571;28;20486;-68
2022/08/25 07:06:11;;;;;;;8.55;3.92;;;;;;;;;;5103669;28;20032;-69
2022/08/25 07:08:37;;;;;;;11.50;3.83;;;;;;;;;;5107762;28;20070;-68
2022/08/25 07:11:05;;;;;;;13.43;4.15;;;;;;;;;;5102210;28;20040;-68
2022/08/25 07:13:31;;;;;;;10.27;3.63;;;;;;;;;;5105645;28;20116;-68
2022/08/25 07:15:57;;;;;;;12.25;3.92;;;;;;;;;;5100473;28;20050;-68
2022/08/25 07:18:24;;;;;;;9.07;4.18;;;;;;;;;;5105503;28;20052;-68
2022/08/25 07:20:51;;;;;;;9.05;3.90;;;;;;;;;;5106391;28;20048;-68
2022/08/25 07:23:17;;;;;;;11.55;3.90;;;;;;;;;;5100039;28;20051;-68
2022/08/25 07:25:43;;;;;;;8.13;3.63;;;;;;;;;;5107630;28;20417;-68
2022/08/25 07:28:10;;;;;;;8.23;3.33;;;;;;;;;;5115616;27;20362;-68
2022/08/25 07:30:36;;;;;;;11.05;3.42;;;;;;;;;;5103427;28;20127;-68
2022/08/25 07:33:02;;;;;;;10.20;3.80;;;;;;;;;;5107332;28;20101;-68
2022/08/25 07:35:31;;;;;;;11.43;3.35;;;;;;;;;;5102011;28;20131;-68
2022/08/25 07:37:57;;;;;;;8.48;3.58;;;;;;;;;;5102333;28;20494;-68
2022/08/25 07:40:26;;;;;;;12.00;3.85;;;;;;;;;;5099550;28;20039;-68
2022/08/25 07:42:53;;;;;;;7.25;3.42;;;;;;;;;;5106649;28;20043;-68
2022/08/25 07:45:20;;;;;;;7.97;3.55;;;;;;;;;;5100593;28;20458;-68
2022/08/25 07:47:46;;;;;;;11.95;4.32;;;;;;;;;;5106797;28;20043;-68
2022/08/25 07:50:13;;;;;;;8.90;3.03;;;;;;;;;;5101187;28;20079;-68
2022/08/25 07:52:40;;;;;;;8.50;3.58;;;;;;;;;;5101982;28;20043;-68
2022/08/25 07:55:06;;;;;;;6.13;3.50;;;;;;;;;;5107019;28;20050;-67
2022/08/25 07:57:33;;;;;;;7.85;3.58;;;;;;;;;;5119160;27;20039;-68
2022/08/25 07:59:59;;;;;;;10.55;3.95;;;;;;;;;;5098983;28;20036;-67
2022/08/25 08:02:26;;;;;;;9.45;3.88;;;;;;;;;;5086811;28;20048;-68
2022/08/25 08:04:52;;;;;;;13.07;3.58;;;;;;;;;;5098729;28;20058;-69
2022/08/25 08:07:19;;;;;;;7.18;3.00;;;;;;;;;;5093586;28;20451;-67
2022/08/25 08:09:46;;;;;;;10.00;3.28;;;;;;;;;;5080801;28;20050;-67
2022/08/25 08:12:12;;;;;;;9.85;4.10;;;;;;;;;;5082165;28;20127;-68
2022/08/25 08:14:38;;;;;;;7.18;3.30;;;;;;;;;;5083012;28;20462;-68
2022/08/25 08:17:06;;;;;;;13.63;3.30;;;;;;;;;;5089187;28;20048;-68
2022/08/25 08:19:32;;;;;;;7.85;3.05;;;;;;;;;;5090630;28;20047;-68
2022/08/25 08:21:58;;;;;;;8.95;3.15;;;;;;;;;;5086170;28;20122;-68
2022/08/25 08:24:24;;;;;;;6.35;2.83;;;;;;;;;;5072238;28;20139;-68
2022/08/25 08:26:50;;;;;;;7.55;2.75;;;;;;;;;;5091342;28;20413;-68
2022/08/25 08:29:18;;;;;;;10.50;3.35;;;;;;;;;;5089595;28;20052;-68
2022/08/25 08:31:45;;;;;;;7.65;3.00;;;;;;;;;;5089452;28;20047;-68
2022/08/25 08:34:11;;;;;;;5.75;3.08;;;;;;;;;;5090501;28;20062;-68
2022/08/25 08:36:37;;;;;;;6.32;3.40;;;;;;;;;;5091918;28;20040;-68
2022/08/25 08:39:03;;;;;;;7.80;3.10;;;;;;;;;;5091501;28;20056;-68
2022/08/25 08:44:22;;;;;;;9.17;2.80;;;;;;;;;;5091018;28;20040;-68
2022/08/25 08:46:52;;;;;;;8.25;3.20;;;;;;;;;;5090154;28;20036;-68
2022/08/25 08:49:38;;;;;;;10.10;3.60;;;;;;;;;;5083820;28;20040;-68
2022/08/25 08:52:05;;;;;;;7.75;2.85;;;;;;;;;;5091717;28;20395;-68
2022/08/25 08:54:33;;;;;;;9.98;2.90;;;;;;;;;;5088271;28;20101;-68
2022/08/25 08:57:05;;;;;;;8.88;2.83;;;;;;;;;;5087998;28;20204;-67
2022/08/25 08:59:40;;;;;;;10.50;3.20;;;;;;;;;;5091623;28;20055;-68
2022/08/25 09:02:11;;;;;;;9.38;3.30;;;;;;;;;;5087587;28;20552;-68
2022/08/25 09:04:41;;;;;;;12.20;3.20;;;;;;;;;;5087458;28;20387;-68
2022/08/25 09:07:11;;;;;;;9.15;3.03;;;;;;;;;;5089140;28;20063;-68
2022/08/25 09:09:39;;;;;;;5.20;2.70;;;;;;;;;;5087688;28;20513;-68
2022/08/25 09:12:05;;;;;;;9.63;3.00;;;;;;;;;;5088698;28;20467;-68
2022/08/25 09:14:39;;;;;;;8.70;2.80;;;;;;;;;;5089062;28;20040;-68
2022/08/25 09:17:12;;;;;;;10.25;2.72;;;;;;;;;;5087327;28;20044;-67
2022/08/25 09:19:57;;;;;;;9.38;3.20;;;;;;;;;;5090147;28;20051;-67
2022/08/25 09:22:23;;;;;;;6.72;2.50;;;;;;;;;;5089177;28;20430;-68
2022/08/25 09:24:59;;;;;;;7.47;2.03;;;;;;;;;;5088135;28;20466;-68
2022/08/25 09:27:39;;;;;;;7.25;2.75;;;;;;;;;;5088139;28;20047;-68
2022/08/25 09:30:07;;;;;;;8.13;2.33;;;;;;;;;;5090628;28;20044;-68
2022/08/25 09:32:35;;;;;;;8.68;2.60;;;;;;;;;;5090916;28;20328;-68
2022/08/25 09:35:02;;;;;;;7.18;2.05;;;;;;;;;;5083934;28;20139;-68
2022/08/25 09:37:28;;;;;;;6.53;2.60;;;;;;;;;;5088265;28;20047;-68
2022/08/25 09:39:55;;;;;;;5.95;2.28;;;;;;;;;;5088695;28;20486;-67
2022/08/25 09:42:21;;;;;;;6.07;2.30;;;;;;;;;;5087279;28;20213;-68
2022/08/25 09:44:48;;;;;;;5.97;2.38;;;;;;;;;;5088137;28;20048;-67
2022/08/25 09:47:14;;;;;;;7.32;2.22;;;;;;;;;;5088771;28;20036;-68
2022/08/25 09:49:43;;;;;;;7.97;1.98;;;;;;;;;;5086481;28;20044;-67
2022/08/25 09:52:18;;;;;;;9.27;2.13;;;;;;;;;;5071173;28;20048;-67
2022/08/25 09:54:45;;;;;;;7.35;1.80;;;;;;;;;;5090234;28;20676;-67
2022/08/25 09:57:27;;;;;;;6.57;1.92;;;;;;;;;;5088861;28;20233;-67
2022/08/25 09:59:54;;;;;;;8.60;1.80;;;;;;;;;;5089910;28;20525;-68
2022/08/25 10:02:24;;;;;;;8.85;2.08;;;;;;;;;;5088873;28;20126;-68
2022/08/25 10:04:51;;;;;;;8.27;1.85;;;;;;;;;;5087302;28;20052;-68
2022/08/25 10:07:26;;;;;;;7.63;1.48;;;;;;;;;;5087240;28;20130;-68
2022/08/25 10:09:55;;;;;;;6.85;2.20;;;;;;;;;;5089244;28;20075;-67
2022/08/25 10:12:24;;;;;;;8.50;1.80;;;;;;;;;;5088760;28;20186;-68
2022/08/25 10:14:51;;;;;;;8.38;2.20;;;;;;;;;;5090240;28;20460;-68
2022/08/25 10:17:23;;;;;;;6.68;1.50;;;;;;;;;;5089004;28;20047;-67
2022/08/25 10:19:51;;;;;;;8.80;1.80;;;;;;;;;;5086857;28;20044;-68
2022/08/25 10:22:24;;;;;;;7.90;1.90;;;;;;;;;;5088758;28;20433;-68
2022/08/25 10:24:50;;;;;;;4.97;1.92;;;;;;;;;;5087090;28;20044;-68
2022/08/25 10:27:30;;;;;;;6.00;2.00;;;;;;;;;;5087318;28;20044;-68
2022/08/25 10:30:03;;;;;;;6.43;2.15;;;;;;;;;;5089311;28;20146;-68
2022/08/25 10:32:30;;;;;;;5.03;1.48;;;;;;;;;;5088782;28;20101;-68
2022/08/25 10:34:58;;;;;;;4.57;1.75;;;;;;;;;;5087545;28;20545;-68
2022/08/25 10:37:24;;;;;;;5.05;1.80;;;;;;;;;;5086543;28;20510;-68
2022/08/25 10:40:02;;;;;;;6.13;1.77;;;;;;;;;;5101801;28;20040;-68
2022/08/25 10:42:29;;;;;;;7.35;1.90;;;;;;;;;;5087604;28;20043;-68
2022/08/25 10:47:53;;;;;;;4.57;1.67;;;;;;;;;;5084308;28;20502;-68
2022/08/25 10:50:28;;;;;;;4.45;1.63;;;;;;;;;;5087166;28;20047;-68
2022/08/25 10:53:11;;;;;;;6.25;1.90;;;;;;;;;;5088370;28;20055;-68
2022/08/25 10:55:42;;;;;;;9.95;1.92;;;;;;;;;;5083674;28;20502;-68
2022/08/25 10:58:21;;;;;;;3.83;1.83;;;;;;;;;;5086519;28;20056;-68
2022/08/25 11:00:52;;;;;;;5.82;2.20;;;;;;;;;;5086457;28;20497;-68
2022/08/25 11:03:33;;;;;;;5.68;1.70;;;;;;;;;;5085258;28;20055;-68
2022/08/25 11:06:01;;;;;;;5.70;1.75;;;;;;;;;;5087131;28;20044;-68
2022/08/25 11:08:27;;;;;;;4.45;1.90;;;;;;;;;;5086245;28;20149;-68
2022/08/25 11:10:59;;;;;;;6.78;1.80;;;;;;;;;;5086650;28;20097;-68
2022/08/25 11:13:31;;;;;;;5.65;1.90;;;;;;;;;;5081772;28;20425;-68
2022/08/25 11:16:00;;;;;;;5.90;1.90;;;;;;;;;;5086915;28;20048;-68
2022/08/25 11:18:30;;;;;;;6.20;2.00;;;;;;;;;;5070114;28;20059;-68
2022/08/25 11:21:01;;;;;;;5.57;2.00;;;;;;;;;;5101305;28;20120;-68
2022/08/25 11:23:33;;;;;;;4.13;1.48;;;;;;;;;;5085686;28;20057;-67
2022/08/25 11:26:05;;;;;;;6.22;1.90;;;;;;;;;;5086145;28;20040;-68
2022/08/25 11:28:31;;;;;;;8.00;1.83;;;;;;;;;;5085926;28;20101;-67
2022/08/25 11:30:58;;;;;;;5.80;1.70;;;;;;;;;;5086052;28;20044;-67
2022/08/25 11:33:25;;;;;;;6.80;1.55;;;;;;;;;;5087057;28;20036;-68
2022/08/25 11:35:55;;;;;;;5.95;1.80;;;;;;;;;;5087169;28;20055;-68
2022/08/25 11:38:22;;;;;;;6.65;1.80;;;;;;;;;;5087684;28;20077;-68
2022/08/25 11:40:52;;;;;;;3.53;1.50;;;;;;;;;;5089390;28;20112;-68
2022/08/25 11:43:37;;;;;;;6.78;1.63;;;;;;;;;;5086473;28;20052;-67
2022/08/25 11:46:11;;;;;;;3.38;1.65;;;;;;;;;;5084181;28;20044;-68
2022/08/25 11:48:41;;;;;;;7.03;1.90;;;;;;;;;;5088249;28;20059;-68
2022/08/25 11:51:09;;;;;;;4.38;1.60;;;;;;;;;;5084317;28;20040;-68
2022/08/25 11:53:36;;;;;;;6.65;1.80;;;;;;;;;;5090637;28;20907;-68
2022/08/25 11:56:05;;;;;;;6.85;2.30;;;;;;;;;;5102088;28;20474;-68
2022/08/25 11:58:34;;;;;;;4.68;1.90;;;;;;;;;;5102170;28;20067;-68
2022/08/25 12:01:01;;;;;;;4.63;1.48;;;;;;;;;;5105366;28;20047;-68
2022/08/25 12:03:32;;;;;;;4.03;1.48;;;;;;;;;;5095586;28;20043;-68
2022/08/25 12:06:08;;;;;;;4.65;1.48;;;;;;;;;;5095110;28;20517;-67
2022/08/25 12:08:49;;;;;;;7.07;2.15;;;;;;;;;;5093290;28;20360;-68
2022/08/25 12:11:43;;;;;;;4.80;1.70;;;;;;;;;;5095142;28;20454;-68
2022/08/25 12:14:15;;;;;;;4.82;1.70;;;;;;;;;;5100307;28;20097;-68
2022/08/25 12:16:43;;;;;;;5.93;2.00;;;;;;;;;;5092051;28;20130;-68
2022/08/25 12:19:26;;;;;;;6.47;1.55;;;;;;;;;;5090920;28;20035;-68
2022/08/25 12:21:54;;;;;;;4.78;1.83;;;;;;;;;;5101588;28;20059;-68
2022/08/25 12:24:24;;;;;;;6.10;1.75;;;;;;;;;;5094422;28;20040;-68
2022/08/25 12:26:56;;;;;;;3.85;1.55;;;;;;;;;;5095354;28;20085;-68
2022/08/25 12:29:28;;;;;;;3.80;1.83;;;;;;;;;;5091885;28;20039;-68
2022/08/25 12:32:10;;;;;;;3.25;1.70;;;;;;;;;;5095350;28;20067;-67
2022/08/25 12:34:37;;;;;;;;;;;;;;;;;;5093582;28;20043;-68
2022/08/25 12:37:11;;;;;;;5.82;1.73;;;;;;;;;;5082491;28;19923;-68
2022/08/25 12:39:44;;;;;;;3.47;1.48;;;;;;;;;;5097072;28;20339;-68
2022/08/25 12:42:22;;;;;;;9.50;1.88;;;;;;;;;;5098246;28;20066;-68
2022/08/25 12:45:07;;;;;;;4.22;1.73;;;;;;;;;;5093907;28;20065;-68
2022/08/25 12:47:34;;;;;;;4.90;1.55;;;;;;;;;;5093304;28;20048;-68
2022/08/25 12:50:18;;;;;;;6.15;1.80;;;;;;;;;;5095132;28;20078;-67
2022/08/25 12:52:45;;;;;;;6.43;1.67;;;;;;;;;;5099018;28;20040;-68
2022/08/25 12:55:12;;;;;;;5.38;1.70;;;;;;;;;;5098204;28;20101;-68
2022/08/25 12:57:41;;;;;;;8.98;2.20;;;;;;;;;;5093839;28;20115;-68
2022/08/25 13:00:28;;;;;;;4.45;1.63;;;;;;;;;;5100693;28;20062;-68
2022/08/25 13:03:03;;;;;;;4.28;1.77;;;;;;;;;;5097473;28;20047;-68
2022/08/25 13:05:43;;;;;;;6.97;1.90;;;;;;;;;;5102709;28;20047;-68
2022/08/25 13:08:19;;;;;;;6.68;1.70;;;;;;;;;;5098833;28;20138;-68
2022/08/25 13:10:46;;;;;;;4.63;1.90;;;;;;;;;;5100769;28;20513;-68
2022/08/25 13:13:38;;;;;;;8.07;1.88;;;;;;;;;;5101408;28;20035;-68
2022/08/25 13:16:07;;;;;;;4.75;1.67;;;;;;;;;;5099807;28;20123;-68
2022/08/25 13:18:34;;;;;;;7.22;1.50;;;;;;;;;;5101383;28;20039;-68
2022/08/25 13:21:03;;;;;;;5.50;1.60;;;;;;;;;;5095458;28;20036;-68
2022/08/25 13:23:30;;;;;;;4.53;1.60;;;;;;;;;;5102680;28;20058;-69
2022/08/25 13:25:57;;;;;;;4.20;1.50;;;;;;;;;;5103560;28;20131;-69
2022/08/25 13:28:29;;;;;;;5.13;1.92;;;;;;;;;;5097532;28;20128;-68
2022/08/25 13:30:56;;;;;;;5.60;1.30;;;;;;;;;;5096078;28;20044;-68
2022/08/25 13:33:23;;;;;;;4.75;1.58;;;;;;;;;;5103562;28;20043;-69
2022/08/25 13:38:36;;;;;;;7.28;1.67;;;;;;;;;;5091253;28;20105;-69
2022/08/25 13:41:04;;;;;;;4.75;1.60;;;;;;;;;;5102598;28;20040;-68
2022/08/25 13:43:30;;;;;;;3.40;1.80;;;;;;;;;;5100311;28;20479;-69
2022/08/25 13:45:56;;;;;;;3.05;1.30;;;;;;;;;;5104302;28;20043;-69
2022/08/25 13:48:33;;;;;;;9.23;1.80;;;;;;;;;;5096398;28;20075;-69
2022/08/25 13:51:08;;;;;;;6.60;1.10;;;;;;;;;;5095655;28;20055;-69
2022/08/25 13:53:34;;;;;;;3.15;1.42;;;;;;;;;;5094430;28;20119;-69
2022/08/25 13:56:02;;;;;;;3.92;1.60;;;;;;;;;;5094966;28;20490;-68
2022/08/25 13:58:35;;;;;;;5.82;1.63;;;;;;;;;;5102234;28;20308;-69
2022/08/25 14:01:01;;;;;;;4.43;1.60;;;;;;;;;;5094970;28;20484;-69
2022/08/25 14:03:37;;;;;;;4.18;1.33;;;;;;;;;;5096434;28;20044;-69
2022/08/25 14:06:06;;;;;;;6.03;1.83;;;;;;;;;;5094072;28;20060;-69
2022/08/25 14:08:36;;;;;;;4.05;1.40;;;;;;;;;;5095653;28;20050;-69
2022/08/25 14:11:07;;;;;;;5.75;1.70;;;;;;;;;;5097716;28;20581;-69
2022/08/25 14:13:33;;;;;;;5.63;1.52;;;;;;;;;;5093562;28;20091;-68
2022/08/25 14:16:08;;;;;;;3.45;1.45;;;;;;;;;;5090835;28;20084;-68
2022/08/25 14:18:34;;;;;;;3.92;1.60;;;;;;;;;;5087924;28;20039;-68
2022/08/25 14:21:03;;;;;;;5.53;1.60;;;;;;;;;;5095894;28;20048;-68
2022/08/25 14:23:30;;;;;;;3.42;1.40;;;;;;;;;;5098363;28;20485;-68
2022/08/25 14:25:57;;;;;;;4.38;1.38;;;;;;;;;;5098160;28;20084;-68
2022/08/25 14:28:25;;;;;;;4.82;1.50;;;;;;;;;;5097743;28;20043;-68
2022/08/25 14:30:51;;;;;;;4.03;1.60;;;;;;;;;;5092718;28;20031;-68
2022/08/25 14:33:19;;;;;;;4.50;1.50;;;;;;;;;;5091755;28;20136;-68
2022/08/25 14:35:47;;;;;;;4.18;1.35;;;;;;;;;;5098622;28;20043;-68
2022/08/25 14:38:14;;;;;;;7.03;1.73;;;;;;;;;;5098809;28;20044;-67
2022/08/25 14:40:40;;;;;;;4.53;1.50;;;;;;;;;;5095203;28;20036;-68
2022/08/25 14:43:07;;;;;;;4.43;1.45;;;;;;;;;;5092416;28;20402;-68
2022/08/25 14:45:36;;;;;;;3.80;1.75;;;;;;;;;;5093314;28;20482;-68
2022/08/25 14:48:06;;;;;;;6.65;1.55;;;;;;;;;;5092496;28;20060;-69
2022/08/25 14:50:32;;;;;;;7.22;1.60;;;;;;;;;;5103330;28;20036;-67
2022/08/25 14:52:59;;;;;;;4.80;1.73;;;;;;;;;;5096924;28;20060;-68
2022/08/25 14:55:25;;;;;;;4.00;1.55;;;;;;;;;;5094033;28;20486;-68